createdAt,value
2022-10-06T00:14:18.657Z,6.63
2022-10-06T00:16:45.823Z,8.27
2022-10-06T00:19:13.227Z,7.55
2022-10-06T00:27:02.039Z,7.03
2022-10-06T00:29:29.703Z,6.00
2022-10-06T00:32:50.159Z,5.20
2022-10-06T00:35:18.331Z,5.63
2022-10-06T00:42:05.087Z,5.22
2022-10-06T00:44:20.062Z,5.70
2022-10-06T00:44:34.729Z,5.57
2022-10-06T00:49:14.915Z,5.28
2022-10-06T00:50:16.596Z,5.63
2022-10-06T00:52:44.035Z,4.95
2022-10-06T00:59:29.825Z,5.07
2022-10-06T01:02:02.106Z,4.85
2022-10-06T01:05:11.524Z,5.45
2022-10-06T01:07:38.802Z,4.88
2022-10-06T01:13:13.514Z,5.50
2022-10-06T01:23:28.040Z,4.38
2022-10-06T01:29:03.366Z,4.60
2022-10-06T01:31:31.656Z,4.63
2022-10-06T01:38:54.037Z,4.75
2022-10-06T01:41:22.747Z,4.18
2022-10-06T01:43:50.513Z,4.50
2022-10-06T01:47:23.929Z,4.32
2022-10-06T01:49:51.227Z,4.10
2022-10-06T01:56:18.179Z,4.22
2022-10-06T01:58:49.342Z,4.10
2022-10-06T02:05:45.652Z,4.20
2022-10-06T02:08:13.771Z,4.15
2022-10-06T02:13:59.366Z,4.13
2022-10-06T02:16:26.865Z,4.68
2022-10-06T02:24:18.504Z,4.63
2022-10-06T02:26:46.818Z,4.72
2022-10-06T02:29:14.698Z,5.25
2022-10-06T02:31:45.068Z,4.72
2022-10-06T02:34:12.497Z,4.90
2022-10-06T02:36:41.516Z,4.45
2022-10-06T02:39:08.617Z,4.22
2022-10-06T02:46:31.734Z,4.32
2022-10-06T02:49:01.654Z,4.50
2022-10-06T02:59:55.441Z,4.15
2022-10-06T03:02:23.810Z,3.65
2022-10-06T03:04:52.870Z,4.35
2022-10-06T03:33:04.792Z,4.50
2022-10-06T03:35:34.084Z,4.75
2022-10-06T03:38:06.910Z,4.55
2022-10-06T03:40:37.717Z,4.20
2022-10-06T03:59:10.994Z,4.75
2022-10-06T04:05:38.647Z,4.70
2022-10-06T04:08:05.907Z,4.53
2022-10-06T04:14:59.994Z,5.05
2022-10-06T04:17:29.473Z,5.20
2022-10-06T04:28:54.881Z,5.15
2022-10-06T04:31:32.996Z,5.32
2022-10-06T04:34:17.009Z,5.32
2022-10-06T04:36:48.547Z,5.10
2022-10-06T04:44:45.034Z,4.90
2022-10-06T04:47:16.104Z,4.18
2022-10-06T04:51:04.206Z,4.70
2022-10-06T04:53:32.946Z,4.53
2022-10-06T04:56:11.205Z,4.43
2022-10-06T04:58:41.649Z,5.18
2022-10-06T05:01:36.575Z,4.95
2022-10-06T05:04:08.789Z,4.63
2022-10-06T05:07:35.517Z,4.65
2022-10-06T05:10:03.221Z,5.18
2022-10-06T05:12:32.165Z,5.90
2022-10-06T05:28:18.256Z,5.00
2022-10-06T05:31:02.033Z,4.32
2022-10-06T05:38:22.427Z,4.43
2022-10-06T05:40:51.681Z,4.55
2022-10-06T05:43:18.980Z,4.57
2022-10-06T05:45:57.887Z,5.20
2022-10-06T05:52:57.724Z,4.93
2022-10-06T05:55:29.451Z,4.50
2022-10-06T06:02:22.693Z,4.88
2022-10-06T06:04:50.005Z,4.55
2022-10-06T06:07:17.761Z,4.53
2022-10-06T06:09:48.248Z,5.03
2022-10-06T06:12:16.727Z,4.90
2022-10-06T06:15:11.877Z,4.85
2022-10-06T06:18:38.141Z,4.85
2022-10-06T06:21:08.732Z,4.70
2022-10-06T06:24:53.197Z,4.32
2022-10-06T06:27:20.600Z,4.53
2022-10-06T06:29:48.194Z,4.72
2022-10-06T06:32:15.875Z,4.40
2022-10-06T06:34:45.104Z,4.80
2022-10-06T06:38:20.011Z,5.03
2022-10-06T06:40:50.545Z,5.25
2022-10-06T07:01:15.547Z,4.70
2022-10-06T07:04:03.643Z,4.57
2022-10-06T07:06:37.809Z,4.88
2022-10-06T07:09:06.026Z,4.70
2022-10-06T07:17:10.623Z,4.60
2022-10-06T07:20:02.330Z,3.75
2022-10-06T07:23:16.259Z,4.35
2022-10-06T07:25:44.906Z,4.05
2022-10-06T07:32:33.484Z,4.10
2022-10-06T07:35:01.261Z,4.15
2022-10-06T07:37:38.738Z,4.10
2022-10-06T07:40:07.673Z,4.50
2022-10-06T07:42:52.537Z,4.72
2022-10-06T07:45:39.229Z,4.65
2022-10-06T07:48:20.603Z,4.32
2022-10-06T07:51:00.103Z,3.83
2022-10-06T07:54:45.146Z,4.30
2022-10-06T07:57:34.931Z,4.13
2022-10-06T08:13:43.937Z,3.88
2022-10-06T08:16:18.301Z,4.18
2022-10-06T08:19:59.375Z,3.85
2022-10-06T08:22:30.269Z,3.88
2022-10-06T08:25:06.144Z,3.60
2022-10-06T08:27:35.171Z,3.53
2022-10-06T08:30:11.930Z,3.40
2022-10-06T08:32:39.466Z,3.35
2022-10-06T08:35:07.377Z,3.40
2022-10-06T08:37:35.230Z,3.10
2022-10-06T08:40:06.083Z,3.25
2022-10-06T08:42:38.867Z,2.70
2022-10-06T08:45:24.423Z,2.97
2022-10-06T08:48:03.917Z,3.13
2022-10-06T08:50:54.603Z,3.20
2022-10-06T08:53:38.483Z,3.20
2022-10-06T08:56:37.976Z,2.90
2022-10-06T08:59:05.485Z,3.00
2022-10-06T09:01:52.729Z,3.28
2022-10-06T09:04:31.304Z,3.20
2022-10-06T09:07:40.547Z,3.60
2022-10-06T09:10:49.658Z,3.13
2022-10-06T09:13:21.985Z,3.95
2022-10-06T09:16:07.713Z,2.75
2022-10-06T09:19:07.678Z,3.45
2022-10-06T09:21:56.368Z,2.55
2022-10-06T09:24:47.328Z,3.42
2022-10-06T09:27:30.222Z,3.38
2022-10-06T09:29:58.586Z,3.25
2022-10-06T09:32:33.513Z,3.20
2022-10-06T09:35:01.209Z,3.38
2022-10-06T09:37:54.643Z,3.88
2022-10-06T09:40:39.857Z,3.30
2022-10-06T09:43:39.616Z,3.78
2022-10-06T09:46:32.434Z,3.58
2022-10-06T09:49:28.744Z,5.10
2022-10-06T09:52:20.684Z,3.40
2022-10-06T09:55:13.372Z,3.45
2022-10-06T09:57:50.297Z,3.45
2022-10-06T10:00:35.528Z,2.90
2022-10-06T10:03:12.842Z,3.40
2022-10-06T10:06:03.531Z,3.58
2022-10-06T10:08:31.513Z,3.60
2022-10-06T10:11:42.212Z,2.90
2022-10-06T10:14:18.195Z,3.20
2022-10-06T10:16:56.297Z,3.40
2022-10-06T10:19:37.724Z,3.10
2022-10-06T10:23:07.985Z,4.00
2022-10-06T10:26:01.369Z,3.00
2022-10-06T10:28:52.306Z,3.05
2022-10-06T10:31:31.421Z,3.08
2022-10-06T10:35:30.031Z,2.70
2022-10-06T10:38:14.433Z,2.30
2022-10-06T10:41:11.393Z,2.08
2022-10-06T10:43:51.322Z,1.80
2022-10-06T10:46:47.982Z,2.40
2022-10-06T10:49:20.208Z,2.30
2022-10-06T10:51:53.235Z,1.88
2022-10-06T10:54:33.556Z,2.13
